createdAt,value
2023-04-09T00:01:54.911Z,27.70
2023-04-09T00:04:28.533Z,28.43
2023-04-09T00:17:41.302Z,27.90
2023-04-09T00:20:14.833Z,28.51
2023-04-09T00:22:48.513Z,28.10
2023-04-09T00:25:21.879Z,29.85
2023-04-09T00:27:55.508Z,29.94
2023-04-09T00:44:17.495Z,32.43
2023-04-09T00:46:57.542Z,32.62
2023-04-09T00:49:30.936Z,33.25
2023-04-09T00:52:04.598Z,33.66
2023-04-09T00:54:37.938Z,33.48
2023-04-09T00:57:11.493Z,33.34
2023-04-09T00:59:46.885Z,33.11
2023-04-09T01:09:41.498Z,32.47
2023-04-09T01:12:29.782Z,31.23
2023-04-09T01:15:16.519Z,31.49
2023-04-09T01:18:07.247Z,31.54
2023-04-09T01:20:57.041Z,29.98
2023-04-09T01:23:51.222Z,30.38
2023-04-09T01:37:00.463Z,28.40
2023-04-09T01:39:42.508Z,28.61
2023-04-09T01:42:17.289Z,28.38
2023-04-09T01:44:53.499Z,28.97
2023-04-09T01:47:27.668Z,28.49
2023-04-09T01:50:01.480Z,27.81
2023-04-09T02:03:21.578Z,27.92
2023-04-09T02:06:08.924Z,28.16
2023-04-09T02:08:53.752Z,28.06
2023-04-09T02:11:30.948Z,27.99
2023-04-09T02:14:13.484Z,27.80
2023-04-09T02:16:48.880Z,28.75
2023-04-09T02:19:24.490Z,28.59
2023-04-09T02:29:51.483Z,27.99
2023-04-09T02:32:31.551Z,27.42
2023-04-09T02:35:07.745Z,27.51
2023-04-09T02:37:41.558Z,27.69
2023-04-09T02:40:15.119Z,27.84
2023-04-09T02:42:48.513Z,27.95
2023-04-09T02:45:21.675Z,27.91
2023-04-09T02:58:18.460Z,28.67
2023-04-09T03:00:58.546Z,27.77
2023-04-09T03:03:32.009Z,27.78
2023-04-09T03:06:05.489Z,26.97
2023-04-09T03:08:44.037Z,26.82
2023-04-09T03:25:06.480Z,27.24
2023-04-09T03:27:40.517Z,27.49
2023-04-09T03:30:16.242Z,27.69
2023-04-09T03:32:49.932Z,28.22
2023-04-09T03:35:23.615Z,28.64
2023-04-09T03:38:06.751Z,28.05
2023-04-09T03:51:03.465Z,27.71
2023-04-09T03:53:45.489Z,28.71
2023-04-09T03:56:19.045Z,28.62
2023-04-09T03:58:52.771Z,28.53
2023-04-09T04:01:35.606Z,28.20
2023-04-09T04:04:16.234Z,28.51
2023-04-09T04:17:34.470Z,28.15
2023-04-09T04:20:15.507Z,27.29
2023-04-09T04:23:07.464Z,27.69
2023-04-09T04:26:01.150Z,27.99
2023-04-09T04:28:42.547Z,27.81
2023-04-09T04:45:30.451Z,27.91
2023-04-09T04:48:15.462Z,28.03
2023-04-09T04:50:56.889Z,28.40
2023-04-09T04:53:47.485Z,27.77
2023-04-09T04:56:21.133Z,27.67
2023-04-09T04:59:07.500Z,27.74
2023-04-09T05:12:31.460Z,28.74
2023-04-09T05:15:07.194Z,27.79
2023-04-09T05:17:49.524Z,27.70
2023-04-09T05:20:23.317Z,27.42
2023-04-09T05:23:10.283Z,27.50
2023-04-09T05:37:12.187Z,27.60
2023-04-09T05:39:50.594Z,27.24
2023-04-09T05:42:31.468Z,26.90
2023-04-09T05:45:22.708Z,27.02
2023-04-09T05:48:02.539Z,27.04
2023-04-09T05:50:43.927Z,27.26
2023-04-09T06:03:59.621Z,26.82
2023-04-09T06:06:40.533Z,26.46
2023-04-09T06:09:14.644Z,27.20
2023-04-09T06:11:48.470Z,27.23
2023-04-09T06:14:21.714Z,28.07
2023-04-09T06:16:57.064Z,26.93
2023-04-09T06:19:32.659Z,27.28
2023-04-09T06:32:21.528Z,27.10
2023-04-09T06:35:04.492Z,28.56
2023-04-09T06:37:37.671Z,29.54
2023-04-09T06:40:13.610Z,28.74
2023-04-09T06:42:46.819Z,29.52
2023-04-09T06:45:28.459Z,29.30
2023-04-09T06:58:40.437Z,28.68
2023-04-09T07:01:13.940Z,29.27
2023-04-09T07:03:47.513Z,29.82
2023-04-09T07:06:20.706Z,29.51
2023-04-09T07:08:54.762Z,29.32
2023-04-09T07:25:32.436Z,30.14
2023-04-09T07:28:12.424Z,30.25
2023-04-09T07:30:45.781Z,29.56
2023-04-09T07:33:19.422Z,29.76
2023-04-09T07:35:53.559Z,29.49
2023-04-09T07:38:27.429Z,29.00
2023-04-09T07:51:39.447Z,28.68
2023-04-09T07:54:12.661Z,29.35
2023-04-09T07:56:46.462Z,33.07
2023-04-09T07:59:19.686Z,37.53
2023-04-09T08:01:53.504Z,38.61
2023-04-09T08:04:27.460Z,38.40
2023-04-09T08:17:44.444Z,31.35
2023-04-09T08:20:24.440Z,31.67
2023-04-09T08:22:57.665Z,32.86
2023-04-09T08:25:32.425Z,35.40
2023-04-09T08:28:05.927Z,37.85
2023-04-09T08:30:39.419Z,41.13
2023-04-09T08:33:14.896Z,42.67
2023-04-09T08:45:19.386Z,49.35
2023-04-09T08:48:00.284Z,46.88
2023-04-09T08:50:36.671Z,37.47
2023-04-09T08:53:12.435Z,34.12
2023-04-09T08:55:46.189Z,32.54
2023-04-09T09:11:34.420Z,37.98
2023-04-09T09:14:10.019Z,35.88
2023-04-09T09:16:45.538Z,35.33
2023-04-09T09:19:30.964Z,32.38
2023-04-09T09:22:13.435Z,32.07
2023-04-09T09:24:49.844Z,31.41
2023-04-09T09:38:16.384Z,30.26
2023-04-09T09:40:56.417Z,31.98
2023-04-09T09:43:40.618Z,30.71
2023-04-09T09:46:21.483Z,30.19
2023-04-09T09:48:55.020Z,28.58
2023-04-09T09:51:34.347Z,27.78
2023-04-09T09:54:11.659Z,26.88
2023-04-09T10:07:11.389Z,25.32
2023-04-09T10:09:57.429Z,26.00
2023-04-09T10:12:36.933Z,25.73
2023-04-09T10:15:12.416Z,24.59
2023-04-09T10:17:45.810Z,25.10
2023-04-09T10:20:29.081Z,26.29
2023-04-09T10:33:44.443Z,25.22
2023-04-09T10:36:19.184Z,25.00
2023-04-09T10:38:52.581Z,24.98
2023-04-09T10:41:29.298Z,24.81
2023-04-09T10:44:13.425Z,26.27
2023-04-09T10:58:11.318Z,26.48
2023-04-09T11:00:50.021Z,28.38
2023-04-09T11:03:32.440Z,27.31
2023-04-09T11:06:08.628Z,27.25
2023-04-09T11:08:43.397Z,27.11
2023-04-09T11:11:16.649Z,27.39
2023-04-09T11:13:50.430Z,27.18
2023-04-09T11:27:02.401Z,26.83
2023-04-09T11:29:36.345Z,26.50
2023-04-09T11:32:10.426Z,26.54
2023-04-09T11:34:43.665Z,25.96
2023-04-09T11:37:21.401Z,26.31
2023-04-09T11:39:56.810Z,26.29
2023-04-09T11:52:55.366Z,24.47
2023-04-09T11:55:36.445Z,23.73
2023-04-09T11:58:11.009Z,23.61
2023-04-09T12:00:48.344Z,22.72
2023-04-09T12:03:28.320Z,22.80
2023-04-09T12:19:50.394Z,18.47
2023-04-09T12:22:23.640Z,17.77
2023-04-09T12:24:57.541Z,17.84
2023-04-09T12:27:32.397Z,17.59
2023-04-09T12:30:16.490Z,18.06
2023-04-09T12:32:50.252Z,17.79
2023-04-09T12:35:26.429Z,18.24
2023-04-09T12:45:14.374Z,18.97
2023-04-09T12:47:54.444Z,19.86
2023-04-09T12:50:29.681Z,20.33
2023-04-09T12:53:03.395Z,20.30
2023-04-09T12:55:36.972Z,19.89
2023-04-09T12:58:10.416Z,19.86
2023-04-09T13:00:43.751Z,19.37
2023-04-09T13:13:34.369Z,19.09
2023-04-09T13:16:14.397Z,19.18
2023-04-09T13:18:47.897Z,18.42
2023-04-09T13:21:21.411Z,19.67
2023-04-09T13:23:54.670Z,19.53
2023-04-09T13:40:10.442Z,18.94
2023-04-09T13:42:43.661Z,19.10
2023-04-09T13:47:47.700Z,19.02
2023-04-09T13:50:14.677Z,19.52
2023-04-09T13:52:54.411Z,18.41
2023-04-09T13:55:29.601Z,17.07
2023-04-09T14:05:29.360Z,13.81
2023-04-09T14:08:02.958Z,13.60
2023-04-09T14:10:38.405Z,14.23
2023-04-09T14:13:12.078Z,13.59
2023-04-09T14:15:45.452Z,14.18
2023-04-09T14:18:18.756Z,14.31
2023-04-09T14:20:52.422Z,15.10
2023-04-09T14:34:04.414Z,14.31
2023-04-09T14:36:37.649Z,15.15
2023-04-09T14:39:16.424Z,15.83
2023-04-09T14:41:49.811Z,15.74
2023-04-09T14:44:23.412Z,15.62
2023-04-09T15:01:00.390Z,14.45
2023-04-09T15:03:40.556Z,14.94
2023-04-09T15:06:13.670Z,14.95
2023-04-09T15:08:47.612Z,15.07
2023-04-09T15:11:20.904Z,15.48
2023-04-09T15:13:54.428Z,15.80
2023-04-09T15:27:06.426Z,18.95
2023-04-09T15:29:39.634Z,19.62
2023-04-09T15:32:13.490Z,18.92
2023-04-09T15:34:46.746Z,18.78
2023-04-09T15:37:20.409Z,18.86
2023-04-09T15:39:53.741Z,18.15
2023-04-09T15:52:44.389Z,19.93
2023-04-09T15:55:24.410Z,20.93
2023-04-09T15:58:04.513Z,21.45
2023-04-09T16:00:44.428Z,21.33
2023-04-09T16:03:18.871Z,21.45
2023-04-09T16:05:54.413Z,20.89
2023-04-09T16:19:18.393Z,20.19
2023-04-09T16:21:52.049Z,20.75
2023-04-09T16:24:25.418Z,20.22
2023-04-09T16:26:58.733Z,19.42
2023-04-09T16:29:32.417Z,19.19
2023-04-09T16:32:05.847Z,19.52
2023-04-09T16:34:41.465Z,20.09
2023-04-09T16:48:01.441Z,19.17
2023-04-09T16:50:36.941Z,18.80
2023-04-09T16:53:10.402Z,18.89
2023-04-09T16:55:43.623Z,18.59
2023-04-09T16:58:17.412Z,18.54
2023-04-09T17:00:51.956Z,18.06
2023-04-09T17:13:42.365Z,18.11
2023-04-09T17:16:23.379Z,18.87
2023-04-09T17:18:56.698Z,18.70
2023-04-09T17:21:30.393Z,18.23
2023-04-09T17:24:04.335Z,18.84
2023-04-09T17:26:37.377Z,19.22
2023-04-09T17:39:56.460Z,19.47
2023-04-09T17:42:29.752Z,19.58
2023-04-09T17:45:03.419Z,19.66
2023-04-09T17:47:36.943Z,19.74
2023-04-09T17:50:11.385Z,19.96
2023-04-09T17:52:44.790Z,19.54
2023-04-09T17:55:20.406Z,20.62
2023-04-09T18:08:30.413Z,19.45
2023-04-09T18:11:12.763Z,18.54
2023-04-09T18:13:53.417Z,18.82
2023-04-09T18:16:27.169Z,18.67
2023-04-09T18:19:00.442Z,18.26
2023-04-09T18:21:34.042Z,18.46
2023-04-09T18:34:24.365Z,17.55
2023-04-09T18:37:04.388Z,17.86
2023-04-09T18:39:37.631Z,18.06
2023-04-09T18:42:11.431Z,18.08
2023-04-09T18:44:44.796Z,17.93
2023-04-09T19:01:00.374Z,19.85
2023-04-09T19:03:33.862Z,20.21
2023-04-09T19:06:07.386Z,20.39
2023-04-09T19:08:40.760Z,20.37
2023-04-09T19:11:14.400Z,20.19
2023-04-09T19:13:47.632Z,20.24
2023-04-09T19:16:24.490Z,20.36
2023-04-09T19:26:30.365Z,20.73
2023-04-09T19:29:10.408Z,21.20
2023-04-09T19:31:45.641Z,21.21
2023-04-09T19:34:19.405Z,21.37
2023-04-09T19:36:52.757Z,21.01
2023-04-09T19:39:26.388Z,20.99
2023-04-09T19:53:19.386Z,20.91
2023-04-09T19:55:52.638Z,20.99
2023-04-09T19:58:26.400Z,22.06
2023-04-09T20:00:59.775Z,21.68
2023-04-09T20:03:33.495Z,22.72
2023-04-09T20:06:07.838Z,22.76
2023-04-09T20:22:23.388Z,25.83
2023-04-09T20:24:56.632Z,26.03
2023-04-09T20:27:31.372Z,24.95
2023-04-09T20:30:07.049Z,25.89
2023-04-09T20:32:42.441Z,25.20
2023-04-09T20:35:15.845Z,24.63
2023-04-09T20:48:06.496Z,23.46
2023-04-09T20:50:46.449Z,23.48
2023-04-09T20:53:19.641Z,23.24
2023-04-09T20:55:53.382Z,23.06
2023-04-09T20:58:26.639Z,22.43
2023-04-09T21:01:09.492Z,22.45
2023-04-09T21:14:21.358Z,22.52
2023-04-09T21:16:54.699Z,22.71
2023-04-09T21:19:28.365Z,23.85
2023-04-09T21:22:02.299Z,24.52
2023-04-09T21:24:35.401Z,24.01
2023-04-09T21:41:12.362Z,23.65
2023-04-09T21:43:45.575Z,23.50
2023-04-09T21:46:19.406Z,23.36
2023-04-09T21:48:53.045Z,23.01
2023-04-09T21:51:26.408Z,22.84
2023-04-09T21:54:03.842Z,22.48
2023-04-09T22:07:01.352Z,21.80
2023-04-09T22:09:41.401Z,21.33
2023-04-09T22:12:16.590Z,20.95
2023-04-09T22:14:50.424Z,21.10
2023-04-09T22:17:23.688Z,21.23
2023-04-09T22:19:57.387Z,20.82
2023-04-09T22:33:48.405Z,22.83
2023-04-09T22:36:21.749Z,23.37
2023-04-09T22:38:56.121Z,22.78
2023-04-09T22:41:29.775Z,23.27
2023-04-09T22:44:03.372Z,23.23
2023-04-09T22:46:36.776Z,23.89
2023-04-09T22:49:12.387Z,23.92
2023-04-09T22:51:45.610Z,23.49
2023-04-09T23:01:09.388Z,23.40
2023-04-09T23:03:42.700Z,23.20
2023-04-09T23:06:18.406Z,23.06
2023-04-09T23:08:51.792Z,22.71
2023-04-09T23:11:25.422Z,23.64
2023-04-09T23:13:58.686Z,22.50
2023-04-09T23:16:32.503Z,22.91
2023-04-09T23:29:44.411Z,22.17
2023-04-09T23:32:17.645Z,21.31
2023-04-09T23:34:51.360Z,22.24
2023-04-09T23:37:24.762Z,21.84
2023-04-09T23:39:58.536Z,21.42
2023-04-09T23:53:53.539Z,21.88
2023-04-09T23:56:28.849Z,21.93
2023-04-09T23:59:03.243Z,21.33
